Time;durP1;ratioP1;P1;durP2;ratioP2;P2;SDS_P1;SDS_P2;PMS_P1;PMS_P2;Temp;Humidity;BMP_temperature;BMP_pressure;BME280_temperature;BME280_humidity;BME280_pressure;Samples;Min_cycle;Max_cycle;Signal;HPM_P1;HPM_P2
2020/12/22 00:00:15;;;;;;;27.02;20.00;;;;;;;11.82;67.03;102503.41;5028109;28;20037;-49
2020/12/22 00:02:42;;;;;;;24.48;18.17;;;;;;;11.84;66.59;102512.06;5032848;28;20104;-50
2020/12/22 00:05:07;;;;;;;28.58;20.15;;;;;;;11.85;66.49;102500.28;5031885;28;20041;-48
2020/12/22 00:07:33;;;;;;;22.55;18.55;;;;;;;11.81;66.69;102497.16;5032966;28;20032;-53
2020/12/22 00:09:58;;;;;;;28.63;18.65;;;;;;;11.81;66.82;102497.16;5033047;28;20373;-50
2020/12/22 00:12:24;;;;;;;27.67;16.40;;;;;;;11.89;66.14;102496.16;5032533;28;20116;-49
2020/12/22 00:14:49;;;;;;;23.13;14.88;;;;;;;11.87;66.25;102490.16;5032545;28;20091;-50
2020/12/22 00:17:15;;;;;;;16.00;13.40;;;;;;;11.77;66.30;102484.38;5032674;28;20037;-49
2020/12/22 00:19:40;;;;;;;19.17;16.85;;;;;;;11.75;66.65;102484.56;5032462;28;20143;-47
2020/12/22 00:22:05;;;;;;;25.88;19.13;;;;;;;11.62;67.06;102493.41;5031022;28;20079;-50
2020/12/22 00:24:31;;;;;;;37.33;23.35;;;;;;;11.58;67.14;102494.84;5032672;28;20041;-50
2020/12/22 00:26:56;;;;;;;42.58;25.98;;;;;;;11.64;67.04;102483.31;5032659;28;20053;-49
2020/12/22 00:29:22;;;;;;;52.97;33.28;;;;;;;11.64;67.28;102487.84;5032721;28;20801;-46
2020/12/22 00:31:47;;;;;;;44.22;30.95;;;;;;;11.67;67.18;102474.00;5032620;28;20034;-47
2020/12/22 00:34:13;;;;;;;51.28;33.78;;;;;;;11.58;67.59;102481.44;5032036;28;20380;-46
2020/12/22 00:36:38;;;;;;;48.85;27.38;;;;;;;11.69;66.82;102478.16;5032689;28;20038;-46
2020/12/22 00:39:04;;;;;;;34.30;21.98;;;;;;;11.72;66.77;102487.66;5032555;28;20073;-47
2020/12/22 00:41:29;;;;;;;33.60;17.80;;;;;;;11.68;66.82;102486.41;5031418;28;20126;-47
2020/12/22 00:43:55;;;;;;;30.63;17.90;;;;;;;11.69;66.74;102483.53;5032090;28;20095;-47
2020/12/22 00:46:20;;;;;;;33.05;21.70;;;;;;;11.67;67.10;102480.19;5031679;28;20037;-48
2020/12/22 00:48:47;;;;;;;20.30;14.90;;;;;;;11.72;67.02;102485.78;5032082;28;20099;-53
2020/12/22 00:51:23;;;;;;;23.73;14.68;;;;;;;11.72;67.44;102495.72;5032247;28;20107;-53
2020/12/22 00:53:49;;;;;;;22.13;14.70;;;;;;;11.78;67.22;102486.84;5032265;28;20037;-53
2020/12/22 00:56:15;;;;;;;17.25;13.98;;;;;;;11.67;67.65;102495.50;5032049;28;20136;-46
2020/12/22 00:58:40;;;;;;;26.30;14.27;;;;;;;11.61;67.79;102499.00;5032021;28;20472;-48
2020/12/22 01:01:06;;;;;;;18.50;13.77;;;;;;;11.68;67.81;102497.16;5031997;28;20427;-49
2020/12/22 01:03:32;;;;;;;15.05;12.70;;;;;;;11.76;67.72;102493.44;5032126;28;20041;-49
2020/12/22 01:05:57;;;;;;;19.02;16.73;;;;;;;11.72;67.33;102488.47;5031760;28;20029;-50
2020/12/22 01:08:23;;;;;;;16.27;11.63;;;;;;;11.62;67.49;102493.41;5032042;28;20045;-47
2020/12/22 01:10:49;;;;;;;16.50;11.75;;;;;;;11.53;67.67;102492.81;5031862;28;20368;-51
2020/12/22 01:13:14;;;;;;;12.90;9.45;;;;;;;11.50;67.37;102485.13;5031817;28;20064;-50
2020/12/22 01:15:40;;;;;;;14.93;10.25;;;;;;;11.52;67.54;102487.63;5032050;28;20055;-48
2020/12/22 01:18:05;;;;;;;14.40;8.77;;;;;;;11.61;66.99;102490.94;5031387;28;20040;-47
2020/12/22 01:20:31;;;;;;;7.65;6.85;;;;;;;11.51;67.11;102486.78;5031949;28;20045;-49
2020/12/22 01:22:56;;;;;;;14.35;8.77;;;;;;;11.40;67.42;102478.50;5031406;28;20022;-50
2020/12/22 01:25:21;;;;;;;7.13;6.32;;;;;;;11.37;67.51;102485.09;5031885;28;20033;-49
2020/12/22 01:27:47;;;;;;;6.72;6.13;;;;;;;11.39;67.69;102492.94;5031808;28;20582;-49
2020/12/22 01:30:12;;;;;;;7.75;5.25;;;;;;;11.38;67.69;102483.22;5031785;28;20037;-46
2020/12/22 01:32:38;;;;;;;6.60;4.72;;;;;;;11.31;67.84;102483.22;5031584;28;20064;-48
2020/12/22 01:35:04;;;;;;;8.30;6.20;;;;;;;11.28;68.31;102491.69;5031163;28;20064;-53
2020/12/22 01:37:29;;;;;;;10.05;7.32;;;;;;;11.39;67.66;102485.72;5031731;28;20072;-50
2020/12/22 01:39:54;;;;;;;12.70;8.52;;;;;;;11.35;67.63;102481.78;5031840;28;20037;-50
2020/12/22 01:42:20;;;;;;;12.73;8.55;;;;;;;11.40;67.26;102481.19;5028781;28;20116;-46
2020/12/22 01:44:45;;;;;;;11.50;8.77;;;;;;;11.29;68.05;102482.56;5031464;28;20468;-51
2020/12/22 01:47:12;;;;;;;9.98;7.97;;;;;;;11.25;68.19;102475.97;5031408;28;20571;-56
2020/12/22 01:49:38;;;;;;;10.93;9.77;;;;;;;11.23;68.44;102478.84;5031684;28;20546;-53
2020/12/22 01:52:03;;;;;;;11.50;9.75;;;;;;;11.23;68.32;102478.03;5031155;28;20069;-52
2020/12/22 01:54:30;;;;;;;8.40;7.07;;;;;;;11.23;68.69;102478.03;5031631;28;20468;-53
2020/12/22 01:56:56;;;;;;;13.52;12.13;;;;;;;11.19;68.31;102480.28;5031543;28;20068;-55
2020/12/22 01:59:22;;;;;;;15.27;13.07;;;;;;;11.23;68.26;102481.53;5035699;28;20038;-52
2020/12/22 02:01:49;;;;;;;17.73;13.45;;;;;;;11.37;67.28;102481.59;5035466;28;20040;-49
2020/12/22 02:04:15;;;;;;;12.32;9.20;;;;;;;11.29;67.25;102482.56;5035379;28;20056;-46
2020/12/22 02:06:41;;;;;;;13.73;10.60;;;;;;;11.07;67.81;102476.53;5035493;28;20464;-49
2020/12/22 02:09:10;;;;;;;17.77;11.60;;;;;;;11.03;68.12;102477.97;5031981;28;20029;-46
2020/12/22 02:11:37;;;;;;;11.70;10.32;;;;;;;11.00;68.33;102475.66;5035327;28;20041;-49
2020/12/22 02:14:04;;;;;;;13.27;11.05;;;;;;;11.03;68.38;102477.97;5035369;28;20116;-50
2020/12/22 02:16:30;;;;;;;11.52;10.43;;;;;;;11.01;68.43;102478.16;5033981;28;20048;-48
2020/12/22 02:18:56;;;;;;;13.95;10.00;;;;;;;11.07;68.15;102473.84;5035050;28;20045;-50
2020/12/22 02:21:23;;;;;;;15.50;9.85;;;;;;;11.12;68.18;102477.56;5035206;28;20037;-48
2020/12/22 02:23:49;;;;;;;14.23;9.65;;;;;;;11.09;68.09;102466.41;5035067;28;20060;-50
2020/12/22 02:26:24;;;;;;;12.80;8.45;;;;;;;11.00;68.59;102465.75;5034749;28;20459;-46
2020/12/22 02:28:51;;;;;;;11.20;7.43;;;;;;;11.00;68.30;102465.75;5035265;28;20041;-46
2020/12/22 02:31:18;;;;;;;9.80;7.78;;;;;;;10.98;68.11;102463.25;5033469;28;20041;-49
2020/12/22 02:33:44;;;;;;;12.75;8.57;;;;;;;11.04;67.79;102461.63;5032421;28;20041;-48
2020/12/22 02:36:11;;;;;;;15.70;8.57;;;;;;;11.00;68.21;102452.34;5034495;28;20033;-48
2020/12/22 02:38:38;;;;;;;8.32;6.88;;;;;;;11.03;68.10;102453.81;5034901;28;20039;-46
2020/12/22 02:41:04;;;;;;;5.15;4.47;;;;;;;11.09;68.11;102455.66;5034379;28;20040;-52
2020/12/22 02:43:30;;;;;;;6.32;4.55;;;;;;;11.01;68.18;102447.78;5034518;28;20045;-46
2020/12/22 02:45:56;;;;;;;13.98;6.13;;;;;;;10.97;68.55;102436.63;5034623;28;20029;-50
2020/12/22 02:48:21;;;;;;;6.43;5.10;;;;;;;11.02;68.71;102441.41;5027263;28;20099;-47
2020/12/22 02:50:47;;;;;;;6.82;5.07;;;;;;;10.97;68.32;102437.47;5034292;28;20025;-51
2020/12/22 02:53:13;;;;;;;5.85;3.40;;;;;;;10.99;68.11;102439.94;5034467;28;20041;-48
2020/12/22 02:55:38;;;;;;;4.80;3.47;;;;;;;10.96;68.48;102441.16;5034276;28;20468;-51
2020/12/22 02:58:03;;;;;;;11.02;3.35;;;;;;;10.92;68.84;102437.25;5034267;28;20033;-50
2020/12/22 03:00:29;;;;;;;5.40;4.90;;;;;;;10.96;68.09;102443.84;5034523;28;20033;-52
2020/12/22 03:02:54;;;;;;;9.30;4.03;;;;;;;10.93;67.94;102446.13;5034361;28;20056;-53
2020/12/22 03:05:20;;;;;;;5.85;4.43;;;;;;;10.84;68.15;102442.78;5034028;28;20030;-52
2020/12/22 03:07:46;;;;;;;8.50;5.55;;;;;;;10.89;68.24;102437.63;5033965;28;20057;-53
2020/12/22 03:10:14;;;;;;;5.90;5.30;;;;;;;10.96;67.77;102438.47;5033461;28;20042;-50
2020/12/22 03:12:40;;;;;;;16.38;8.35;;;;;;;11.06;67.94;102434.59;5033956;28;20403;-48
2020/12/22 03:15:08;;;;;;;9.80;8.80;;;;;;;11.08;67.91;102437.91;5033987;28;20057;-48
2020/12/22 03:17:34;;;;;;;10.88;7.72;;;;;;;11.09;67.91;102439.56;5033774;28;20030;-51
2020/12/22 03:20:00;;;;;;;10.55;7.88;;;;;;;11.15;67.91;102433.41;5033932;28;20463;-47
2020/12/22 03:22:26;;;;;;;17.45;11.80;;;;;;;11.05;67.96;102432.94;5033827;28;20131;-48
2020/12/22 03:24:51;;;;;;;12.38;10.70;;;;;;;10.94;68.53;102437.03;5034166;28;20046;-49
2020/12/22 03:27:17;;;;;;;18.88;12.02;;;;;;;10.95;68.59;102426.09;5033524;28;20071;-51
2020/12/22 03:29:42;;;;;;;13.70;7.43;;;;;;;11.03;68.87;102422.41;5033845;28;20042;-50
2020/12/22 03:32:08;;;;;;;16.45;7.38;;;;;;;11.09;68.38;102423.47;5030453;28;20021;-47
2020/12/22 03:34:34;;;;;;;10.02;5.28;;;;;;;11.07;68.32;102420.97;5030291;28;20064;-49
2020/12/22 03:37:00;;;;;;;10.15;5.35;;;;;;;11.04;68.22;102417.88;5034005;28;20030;-49
2020/12/22 03:39:26;;;;;;;8.82;6.43;;;;;;;10.89;68.79;102423.41;5033744;28;20037;-46
2020/12/22 03:41:51;;;;;;;23.45;8.52;;;;;;;10.96;68.77;102418.88;5033623;28;20104;-47
2020/12/22 03:44:16;;;;;;;8.98;6.53;;;;;;;10.89;69.26;102415.34;5033517;28;20041;-49
2020/12/22 03:46:47;;;;;;;24.27;8.88;;;;;;;10.83;69.20;102419.63;5033573;28;20173;-49
2020/12/22 03:49:12;;;;;;;12.88;6.32;;;;;;;10.91;68.81;102422.16;5033326;28;20048;-46
2020/12/22 03:51:38;;;;;;;10.45;5.72;;;;;;;10.91;68.79;102422.16;5033374;28;20030;-49
2020/12/22 03:54:03;;;;;;;7.68;5.50;;;;;;;10.84;69.26;102425.84;5033354;28;20136;-49
2020/12/22 03:56:28;;;;;;;10.27;5.72;;;;;;;10.90;68.88;102425.03;5033093;28;20034;-49
2020/12/22 03:58:54;;;;;;;7.70;6.03;;;;;;;10.84;68.89;102417.81;5033323;28;20095;-50
2020/12/22 04:01:19;;;;;;;9.65;6.45;;;;;;;10.97;68.84;102425.88;5030709;28;20033;-49
2020/12/22 04:03:45;;;;;;;11.23;4.80;;;;;;;11.06;67.90;102413.13;5032921;28;20041;-52
2020/12/22 04:06:10;;;;;;;5.68;3.83;;;;;;;10.94;68.02;102411.03;5032565;28;20026;-50
2020/12/22 04:08:36;;;;;;;8.45;4.28;;;;;;;10.79;68.38;102413.84;5032990;28;20438;-52
2020/12/22 04:11:01;;;;;;;7.90;4.03;;;;;;;10.69;69.00;102418.75;5032895;28;20096;-52
2020/12/22 04:13:27;;;;;;;6.90;5.32;;;;;;;10.79;68.66;102421.06;5032946;28;20440;-53
2020/12/22 04:15:52;;;;;;;8.13;4.95;;;;;;;10.73;68.62;102414.66;5032897;28;20044;-52
2020/12/22 04:18:18;;;;;;;8.13;5.45;;;;;;;10.67;68.63;102425.34;5032604;28;20116;-47
2020/12/22 04:20:43;;;;;;;7.78;4.93;;;;;;;10.71;68.69;102415.88;5032883;28;20021;-48
2020/12/22 04:23:09;;;;;;;6.28;5.68;;;;;;;10.68;68.74;102421.66;5032452;28;20029;-48
2020/12/22 04:25:35;;;;;;;6.25;4.97;;;;;;;10.71;68.77;102419.41;5033005;28;20112;-48
2020/12/22 04:28:01;;;;;;;5.25;3.00;;;;;;;10.77;68.72;102418.59;5032259;28;20029;-51
2020/12/22 04:30:26;;;;;;;8.05;4.03;;;;;;;10.74;68.59;102421.66;5032633;28;20030;-49
2020/12/22 04:32:52;;;;;;;5.30;3.85;;;;;;;10.76;68.89;102416.94;5032625;28;20507;-48
2020/12/22 04:35:17;;;;;;;3.42;2.72;;;;;;;10.74;68.72;102428.88;5031691;28;20057;-50
2020/12/22 04:37:43;;;;;;;5.50;3.28;;;;;;;10.77;68.74;102426.63;5032169;28;20464;-51
2020/12/22 04:40:08;;;;;;;7.10;2.88;;;;;;;10.79;69.26;102423.75;5032608;28;20364;-47
2020/12/22 04:42:34;;;;;;;3.13;1.77;;;;;;;10.77;68.93;102421.25;5029397;28;20466;-47
2020/12/22 04:45:00;;;;;;;6.13;3.10;;;;;;;10.90;68.57;102409.75;5032372;28;20068;-47
2020/12/22 04:47:26;;;;;;;6.72;2.78;;;;;;;10.78;68.98;102420.25;5032050;28;20033;-47
2020/12/22 04:49:57;;;;;;;3.88;2.50;;;;;;;10.85;68.84;102411.38;5032422;28;20034;-49
2020/12/22 04:52:23;;;;;;;7.63;4.38;;;;;;;10.82;68.16;102411.78;5024703;28;20029;-46
2020/12/22 04:54:49;;;;;;;6.40;3.53;;;;;;;10.79;68.28;102408.47;5032445;28;20479;-48
2020/12/22 04:57:16;;;;;;;4.85;4.13;;;;;;;10.76;68.12;102408.03;5032420;28;20030;-49
2020/12/22 04:59:44;;;;;;;4.85;4.00;;;;;;;10.72;68.28;102418.34;5031876;28;20034;-47
2020/12/22 05:02:10;;;;;;;2.67;2.22;;;;;;;10.69;68.18;102415.25;5032004;28;20041;-47
2020/12/22 05:04:37;;;;;;;6.47;2.88;;;;;;;10.51;68.36;102413.09;5032084;28;20057;-45
2020/12/22 05:07:04;;;;;;;2.30;2.00;;;;;;;10.57;68.59;102405.09;5031840;28;20025;-48
2020/12/22 05:09:30;;;;;;;2.97;2.22;;;;;;;10.55;68.53;102404.47;5031904;28;20110;-47
2020/12/22 05:11:55;;;;;;;3.13;2.17;;;;;;;10.52;68.75;102412.06;5031928;28;20471;-46
2020/12/22 05:14:21;;;;;;;3.83;2.33;;;;;;;10.63;68.76;102406.13;5031720;28;20045;-51
2020/12/22 05:16:46;;;;;;;3.17;2.17;;;;;;;10.63;68.29;102403.47;5031863;28;20029;-50
2020/12/22 05:19:17;;;;;;;5.50;2.25;;;;;;;10.57;68.89;102407.78;5031863;28;20049;-51
2020/12/22 05:21:44;;;;;;;5.55;1.85;;;;;;;10.51;69.00;102407.72;5032061;28;20059;-53
2020/12/22 05:24:12;;;;;;;6.13;3.78;;;;;;;10.54;68.68;102415.38;5031368;28;20137;-48
2020/12/22 05:26:40;;;;;;;2.83;2.58;;;;;;;10.59;68.94;102407.56;5029365;28;20033;-50
2020/12/22 05:29:14;;;;;;;3.20;2.22;;;;;;;10.66;68.46;102411.13;5031878;28;20118;-45
2020/12/22 05:31:50;;;;;;;5.55;3.78;;;;;;;10.75;67.74;102395.69;5031162;28;20201;-48
2020/12/22 05:34:17;;;;;;;10.75;7.72;;;;;;;10.67;67.59;102399.34;5027980;28;20504;-48
2020/12/22 05:36:44;;;;;;;6.53;5.72;;;;;;;10.48;68.32;102400.88;5031303;28;20045;-49
2020/12/22 05:39:11;;;;;;;6.75;6.07;;;;;;;10.28;68.81;102399.94;5031536;28;20472;-54
2020/12/22 05:41:37;;;;;;;6.25;4.97;;;;;;;10.17;68.91;102394.09;5031375;28;20041;-50
2020/12/22 05:44:07;;;;;;;5.97;4.15;;;;;;;10.26;69.08;102397.44;5031578;28;20045;-56
2020/12/22 05:46:35;;;;;;;5.30;2.38;;;;;;;10.37;69.03;102404.13;5031407;28;20498;-53
2020/12/22 05:49:10;;;;;;;3.20;1.98;;;;;;;10.39;68.56;102402.09;5031142;28;20068;-52
2020/12/22 05:51:36;;;;;;;5.88;3.38;;;;;;;10.43;68.62;102402.50;5031097;28;20376;-52
2020/12/22 05:54:06;;;;;;;5.50;3.10;;;;;;;10.51;68.43;102399.69;5031004;28;20037;-54
2020/12/22 05:56:33;;;;;;;5.70;3.25;;;;;;;10.51;68.19;102403.19;5031340;28;20037;-54
2020/12/22 05:58:59;;;;;;;7.57;3.70;;;;;;;10.50;68.14;102393.50;5028240;28;20049;-55
2020/12/22 06:01:33;;;;;;;11.13;4.55;;;;;;;10.45;68.61;102397.78;5031402;28;20030;-51
2020/12/22 06:04:00;;;;;;;15.20;13.60;;;;;;;10.36;68.65;102397.09;5030373;28;20039;-53
2020/12/22 06:06:27;;;;;;;11.88;10.77;;;;;;;10.32;68.97;102401.22;5031470;28;20080;-52
2020/12/22 06:08:54;;;;;;;13.52;4.80;;;;;;;10.33;69.33;102397.53;5031184;28;20045;-54
2020/12/22 06:11:19;;;;;;;8.10;4.72;;;;;;;10.33;69.41;102392.97;5030957;28;20527;-52
2020/12/22 06:13:56;;;;;;;12.82;5.25;;;;;;;10.44;69.43;102401.50;5031358;28;20115;-54
2020/12/22 06:16:21;;;;;;;6.30;4.45;;;;;;;10.52;68.82;102391.44;5024136;28;20120;-55
2020/12/22 06:18:51;;;;;;;14.95;9.50;;;;;;;10.46;68.93;102394.91;5031026;28;20116;-53
2020/12/22 06:21:19;;;;;;;7.65;4.10;;;;;;;10.51;68.54;102402.38;5029857;28;20056;-56
2020/12/22 06:23:50;;;;;;;5.75;3.63;;;;;;;10.53;68.15;102401.13;5030898;28;20116;-51
2020/12/22 06:26:21;;;;;;;3.72;3.05;;;;;;;10.43;68.23;102399.84;5030203;28;20132;-57
2020/12/22 06:28:47;;;;;;;2.88;2.25;;;;;;;10.39;68.21;102402.91;5030993;28;20152;-56
2020/12/22 06:31:23;;;;;;;4.70;3.13;;;;;;;10.26;68.65;102396.63;5029481;28;20125;-54
2020/12/22 06:33:52;;;;;;;7.13;4.20;;;;;;;10.28;68.97;102397.25;5029541;28;20542;-53
2020/12/22 06:36:19;;;;;;;9.50;5.35;;;;;;;10.32;68.34;102394.00;5030328;28;20025;-55
2020/12/22 06:39:02;;;;;;;4.75;3.15;;;;;;;10.26;68.50;102393.94;5031082;28;20037;-53
2020/12/22 06:41:43;;;;;;;4.70;3.20;;;;;;;10.21;69.14;102392.66;5030387;28;20487;-55
2020/12/22 06:44:16;;;;;;;6.65;4.55;;;;;;;10.13;69.27;102395.53;5031484;28;20480;-51
2020/12/22 06:46:44;;;;;;;7.00;4.80;;;;;;;10.06;69.92;102402.66;5034479;28;20033;-52
2020/12/22 06:49:10;;;;;;;7.18;6.13;;;;;;;10.20;69.51;102398.22;5029615;28;20047;-52
2020/12/22 06:51:38;;;;;;;7.55;5.80;;;;;;;10.14;69.57;102405.19;5034244;28;20029;-52
2020/12/22 06:54:26;;;;;;;9.52;6.57;;;;;;;10.22;69.41;102397.00;5034021;28;20037;-52
2020/12/22 06:56:52;;;;;;;21.10;9.63;;;;;;;10.37;69.06;102404.13;5033975;28;20045;-53
2020/12/22 06:59:39;;;;;;;9.43;6.95;;;;;;;10.48;68.78;102394.72;5033278;28;20383;-54
2020/12/22 07:02:05;;;;;;;12.35;6.88;;;;;;;10.32;69.21;102396.69;5032235;28;20026;-54
2020/12/22 07:04:40;;;;;;;9.40;6.75;;;;;;;10.28;69.27;102397.25;5033938;28;20056;-56
2020/12/22 07:07:05;;;;;;;17.40;7.55;;;;;;;10.17;70.14;102394.09;5034107;28;20614;-53
2020/12/22 07:09:35;;;;;;;7.32;6.28;;;;;;;10.20;70.06;102401.75;5034382;28;20041;-55
2020/12/22 07:12:11;;;;;;;10.38;8.70;;;;;;;10.23;69.84;102398.66;5031482;28;20034;-56
2020/12/22 07:14:50;;;;;;;11.65;10.45;;;;;;;10.45;69.39;102411.19;5016537;28;20044;-52
2020/12/22 07:17:16;;;;;;;9.63;6.15;;;;;;;10.44;69.28;102405.00;5028438;28;20071;-50
2020/12/22 07:19:47;;;;;;;9.32;5.82;;;;;;;10.41;68.97;102405.38;5029842;28;20045;-49
2020/12/22 07:22:17;;;;;;;6.30;5.72;;;;;;;10.40;69.30;102403.75;5029725;28;20033;-51
2020/12/22 07:24:43;;;;;;;38.90;23.52;;;;;;;10.42;70.09;102407.06;5029264;28;20036;-49
2020/12/22 07:27:09;;;;;;;26.60;13.40;;;;;;;10.46;70.14;102396.75;5027719;28;20033;-50
2020/12/22 07:29:35;;;;;;;67.70;14.15;;;;;;;10.51;69.26;102400.50;5022331;28;20803;-50
2020/12/22 07:32:01;;;;;;;83.10;24.83;;;;;;;10.57;68.92;102409.59;5030405;28;20083;-51
2020/12/22 07:34:27;;;;;;;39.72;9.68;;;;;;;10.40;69.52;102406.44;5029775;28;20054;-50
2020/12/22 07:37:02;;;;;;;171.43;40.05;;;;;;;10.54;69.16;102410.03;5030043;28;20033;-49
2020/12/22 07:39:28;;;;;;;20.38;15.15;;;;;;;10.55;69.50;102409.81;5024103;28;20045;-52
2020/12/22 07:41:53;;;;;;;32.08;15.23;;;;;;;10.50;69.20;102419.47;5030420;28;20099;-50
2020/12/22 07:44:21;;;;;;;20.83;16.63;;;;;;;10.52;69.41;102422.81;5029458;28;20043;-48
2020/12/22 07:46:53;;;;;;;42.88;20.40;;;;;;;10.47;69.10;102427.94;5029927;28;20068;-50
2020/12/22 07:49:19;;;;;;;18.67;16.35;;;;;;;10.45;69.40;102427.28;5028938;28;20477;-52
2020/12/22 07:51:48;;;;;;;37.55;21.00;;;;;;;10.53;69.28;102424.44;5030695;28;20121;-51
2020/12/22 07:54:15;;;;;;;27.48;21.70;;;;;;;10.50;69.30;102428.38;5029415;28;20124;-51
2020/12/22 07:56:44;;;;;;;27.13;23.27;;;;;;;10.49;69.28;102426.69;5026550;28;20038;-51
2020/12/22 07:59:14;;;;;;;35.75;20.80;;;;;;;10.58;69.55;102433.53;5031831;28;20526;-47
2020/12/22 08:01:45;;;;;;;25.75;22.38;;;;;;;10.66;69.10;102431.72;5032334;28;20025;-46
2020/12/22 08:04:13;;;;;;;37.63;25.67;;;;;;;10.66;69.29;102435.25;5031741;28;20521;-49
2020/12/22 08:06:40;;;;;;;28.10;19.75;;;;;;;10.59;69.32;102429.03;5032830;28;20136;-52
2020/12/22 08:09:06;;;;;;;28.13;18.38;;;;;;;10.53;69.80;102433.31;5029694;28;20048;-47
2020/12/22 08:11:32;;;;;;;21.40;14.73;;;;;;;10.67;69.90;102433.41;5031326;28;20033;-48
2020/12/22 08:14:00;;;;;;;20.45;18.00;;;;;;;10.72;69.49;102436.31;5031253;28;20069;-48
2020/12/22 08:16:26;;;;;;;24.67;16.05;;;;;;;10.65;69.96;102432.78;5031400;28;20038;-47
2020/12/22 08:18:52;;;;;;;17.52;12.95;;;;;;;10.72;70.03;102444.38;5030877;28;20077;-50
2020/12/22 08:21:19;;;;;;;24.35;15.23;;;;;;;10.78;69.75;102444.41;5030385;28;20065;-52
2020/12/22 08:23:47;;;;;;;14.27;11.80;;;;;;;10.67;70.27;102457.53;5032022;28;20033;-47
2020/12/22 08:26:14;;;;;;;35.20;16.95;;;;;;;10.70;69.61;102444.56;5031630;28;20059;-48
2020/12/22 08:28:50;;;;;;;34.67;21.08;;;;;;;10.78;69.57;102452.44;5032589;28;20037;-47
2020/12/22 08:31:21;;;;;;;31.52;24.05;;;;;;;10.83;69.64;102451.84;5031689;28;20065;-50
2020/12/22 08:33:51;;;;;;;32.03;22.37;;;;;;;10.87;69.52;102452.25;5030507;28;20033;-49
2020/12/22 08:36:20;;;;;;;34.80;24.13;;;;;;;10.86;69.63;102456.00;5030242;28;20293;-52
2020/12/22 08:38:45;;;;;;;36.70;28.98;;;;;;;10.87;69.90;102453.09;5029914;28;20270;-54
2020/12/22 08:41:21;;;;;;;45.40;30.73;;;;;;;10.79;70.39;102455.94;5018121;28;20045;-55
2020/12/22 08:43:51;;;;;;;37.80;33.85;;;;;;;10.73;70.23;102454.91;5026439;28;20065;-57
2020/12/22 08:46:19;;;;;;;39.30;32.03;;;;;;;10.77;70.70;102455.31;5027942;28;20091;-59
2020/12/22 08:48:44;;;;;;;53.13;41.75;;;;;;;11.01;70.33;102463.88;5024005;28;20043;-57
2020/12/22 08:51:10;;;;;;;66.45;58.97;;;;;;;11.01;70.37;102461.19;5025483;28;20519;-57
2020/12/22 08:53:47;;;;;;;96.70;57.67;;;;;;;10.94;70.25;102459.34;5029026;28;20037;-55
2020/12/22 08:56:13;;;;;;;122.15;88.20;;;;;;;10.79;70.63;102459.44;5028497;28;20083;-51
2020/12/22 08:58:52;;;;;;;123.82;88.25;;;;;;;10.83;70.38;102459.88;5028578;28;20049;-54
2020/12/22 09:01:23;;;;;;;136.88;87.68;;;;;;;10.73;71.18;102456.75;5025757;28;20108;-54
2020/12/22 09:03:56;;;;;;;129.10;77.15;;;;;;;10.80;70.95;102457.63;5028710;28;20155;-55
2020/12/22 09:06:40;;;;;;;177.63;96.03;;;;;;;10.84;70.62;102464.25;5021664;28;20041;-52
2020/12/22 09:09:10;;;;;;;127.38;90.38;;;;;;;10.79;70.66;102459.44;5028316;28;20037;-54
2020/12/22 09:11:37;;;;;;;121.38;90.30;;;;;;;10.89;70.39;102461.78;5016954;28;20029;-56
2020/12/22 09:14:03;;;;;;;153.35;88.55;;;;;;;10.93;70.37;102460.34;5023244;28;20046;-52
2020/12/22 09:16:47;;;;;;;106.90;74.93;;;;;;;10.88;70.87;102460.13;5028474;28;20037;-50
2020/12/22 09:19:14;;;;;;;99.35;71.78;;;;;;;10.98;70.33;102462.44;5024820;28;20387;-52
2020/12/22 09:21:39;;;;;;;97.72;68.63;;;;;;;10.94;70.45;102464.69;5027892;28;20041;-50
2020/12/22 09:24:06;;;;;;;93.05;68.78;;;;;;;10.86;70.66;102459.50;5028366;28;20122;-53
2020/12/22 09:26:31;;;;;;;78.82;63.55;;;;;;;10.58;71.91;102454.19;5028254;28;20033;-55
2020/12/22 09:28:57;;;;;;;180.23;149.93;;;;;;;10.64;72.35;102456.09;5028403;28;20391;-50
2020/12/22 09:31:27;;;;;;;187.50;153.63;;;;;;;10.90;70.86;102454.56;5023836;28;20029;-55
2020/12/22 09:33:53;;;;;;;91.68;74.00;;;;;;;10.92;71.38;102461.41;5022315;28;20332;-58
2020/12/22 09:36:19;;;;;;;102.20;79.00;;;;;;;11.03;71.44;102457.31;5024905;28;20431;-52
2020/12/22 09:38:45;;;;;;;66.00;51.72;;;;;;;11.10;70.96;102458.16;5023986;28;20049;-52
2020/12/22 09:41:10;;;;;;;54.13;43.15;;;;;;;11.21;71.37;102462.13;5023951;28;20049;-54
2020/12/22 09:43:36;;;;;;;52.00;36.83;;;;;;;11.43;71.38;102457.44;5022652;28;20537;-54
2020/12/22 09:46:02;;;;;;;47.08;36.03;;;;;;;11.73;71.61;102457.06;5027887;28;20048;-55
2020/12/22 09:48:27;;;;;;;60.80;40.05;;;;;;;12.13;71.83;102459.78;5028254;28;20415;-52
2020/12/22 09:50:53;;;;;;;56.90;38.88;;;;;;;12.53;69.78;102457.03;5027345;28;20041;-47
2020/12/22 09:53:19;;;;;;;42.58;35.47;;;;;;;12.88;69.13;102456.72;5028235;28;20060;-51
2020/12/22 09:55:45;;;;;;;67.28;45.35;;;;;;;13.27;68.75;102454.06;5025764;28;20171;-48
2020/12/22 09:58:10;;;;;;;61.25;49.75;;;;;;;13.55;68.00;102454.56;5027956;28;20075;-51
2020/12/22 10:00:36;;;;;;;88.63;68.50;;;;;;;13.88;66.67;102456.19;5028075;28;20468;-52
2020/12/22 10:03:01;;;;;;;79.75;67.38;;;;;;;14.16;66.38;102454.91;5027555;28;20037;-50
2020/12/22 10:05:27;;;;;;;57.38;42.90;;;;;;;14.46;65.51;102460.47;5025501;28;20046;-48
2020/12/22 10:07:52;;;;;;;59.38;39.45;;;;;;;14.51;65.17;102457.06;5027698;28;20038;-48
2020/12/22 10:10:18;;;;;;;42.13;33.45;;;;;;;14.65;65.46;102453.19;5027556;28;20044;-50
2020/12/22 10:12:43;;;;;;;46.72;28.90;;;;;;;14.83;65.20;102455.09;5024895;28;20083;-50
2020/12/22 10:15:08;;;;;;;29.95;27.00;;;;;;;15.02;64.82;102453.16;5025973;28;20021;-50
2020/12/22 10:17:34;;;;;;;20.80;18.90;;;;;;;15.07;64.69;102456.00;5027484;28;20380;-52
2020/12/22 10:20:00;;;;;;;30.45;22.45;;;;;;;15.26;64.42;102456.00;5031701;28;20033;-49
2020/12/22 10:22:29;;;;;;;30.00;23.42;;;;;;;15.50;64.44;102448.78;5031079;28;20040;-52
2020/12/22 10:24:55;;;;;;;29.48;23.15;;;;;;;15.75;63.74;102445.94;5031535;28;20037;-50
2020/12/22 10:27:20;;;;;;;39.83;27.73;;;;;;;15.90;63.37;102448.19;5030902;28;20045;-47
2020/12/22 10:29:46;;;;;;;42.65;31.05;;;;;;;16.04;62.74;102437.94;5031875;28;20041;-50
2020/12/22 10:32:11;;;;;;;39.13;27.67;;;;;;;16.04;63.27;102441.50;5026842;28;20037;-49
2020/12/22 10:34:37;;;;;;;42.50;34.45;;;;;;;16.35;62.46;102439.47;5030793;28;20053;-51
2020/12/22 10:37:03;;;;;;;35.25;29.50;;;;;;;16.45;62.34;102438.88;5030583;28;20807;-52
2020/12/22 10:39:29;;;;;;;23.45;20.77;;;;;;;16.74;61.14;102434.38;5031779;28;20041;-54
2020/12/22 10:41:55;;;;;;;22.38;16.20;;;;;;;16.95;60.51;102427.50;5030592;28;20060;-52
2020/12/22 10:44:21;;;;;;;23.52;13.77;;;;;;;17.05;59.83;102420.63;5031491;28;20124;-50
2020/12/22 10:46:47;;;;;;;13.07;6.95;;;;;;;17.42;58.52;102415.59;5025956;28;20046;-55
2020/12/22 10:49:13;;;;;;;8.90;4.00;;;;;;;17.86;57.35;102415.81;5031351;28;20120;-52
2020/12/22 10:51:38;;;;;;;6.30;4.38;;;;;;;17.88;56.96;102413.69;5030543;28;20470;-52
2020/12/22 10:54:04;;;;;;;4.80;2.90;;;;;;;18.12;55.70;102413.47;5031020;28;20041;-54
2020/12/22 10:56:29;;;;;;;10.52;9.05;;;;;;;18.16;56.30;102413.81;5030931;28;20439;-52
2020/12/22 10:58:55;;;;;;;13.45;8.80;;;;;;;18.40;55.17;102406.25;5016756;28;20033;-48
2020/12/22 11:01:21;;;;;;;7.97;3.60;;;;;;;18.46;54.80;102406.06;5016984;28;20124;-53
2020/12/22 11:03:46;;;;;;;1.63;1.05;;;;;;;18.73;54.06;102402.59;5031065;28;20030;-49
2020/12/22 11:08:49;;;;;;;14.10;8.65;;;;;;;19.11;54.82;102400.88;5031000;28;20091;-51
2020/12/22 11:11:15;;;;;;;64.97;21.90;;;;;;;21.57;52.31;102395.84;5027303;28;20033;-59
2020/12/22 11:13:40;;;;;;;28.20;21.23;;;;;;;23.07;46.20;102396.16;5030815;28;20391;-60
2020/12/22 11:16:12;;;;;;;26.38;22.90;;;;;;;22.60;47.44;102399.16;5030616;28;20102;-56
2020/12/22 11:18:41;;;;;;;47.92;33.25;;;;;;;22.80;45.28;102395.47;5030879;28;20026;-57